Time,TemperatureF,DewpointF,PressureIn,WindDirection,WindDirectionDegrees,WindSpeedMPH,WindSpeedGustMPH,Humidity,HourlyPrecipIn,Conditions,Clouds,dailyrainin,SoftwareType,DateUTC
2013-05-14 00:01:00,65.2,33.0,29.70,SE,146,0.0,1.0,30,0.00,,,0.00,weatherlink.com 1.10,2013-05-14 05:01:00,
2013-05-14 00:16:00,64.6,32.0,29.70,SSE,148,0.0,1.0,30,0.00,,,0.00,weatherlink.com 1.10,2013-05-14 05:16:00,
2013-05-14 00:31:00,64.3,33.0,29.69,SSE,166,0.0,1.0,31,0.00,,,0.00,weatherlink.com 1.10,2013-05-14 05:31:00,
2013-05-14 00:46:00,63.4,34.0,29.69,SSE,166,0.0,0.0,33,0.00,,,0.00,weatherlink.com 1.10,2013-05-14 05:46:00,
2013-05-14 01:01:00,62.9,33.0,29.68,SSW,204,0.0,1.0,33,0.00,,,0.00,weatherlink.com 1.10,2013-05-14 06:01:00,
2013-05-14 01:16:00,64.0,33.0,29.69,SSW,195,1.0,2.0,32,0.00,,,0.00,weatherlink.com 1.10,2013-05-14 06:16:00,
2013-05-14 01:31:00,64.0,34.0,29.68,South,189,0.0,2.0,33,0.00,,,0.00,weatherlink.com 1.10,2013-05-14 06:31:00,
2013-05-14 01:47:00,62.9,34.0,29.68,South,183,1.0,3.0,34,0.00,,,0.00,weatherlink.com 1.10,2013-05-14 06:47:00,
2013-05-14 02:17:00,62.3,34.0,29.66,South,191,2.0,3.0,35,0.00,,,0.00,weatherlink.com 1.10,2013-05-14 07:17:00,
2013-05-14 02:32:00,62.5,34.0,29.66,SE,145,0.0,3.0,34,0.00,,,0.00,weatherlink.com 1.10,2013-05-14 07:32:00,
2013-05-14 02:47:00,59.1,34.0,29.66,SSW,204,0.0,2.0,39,0.00,,,0.00,weatherlink.com 1.10,2013-05-14 07:47:00,
2013-05-14 03:02:00,57.6,31.0,29.66,SSE,157,0.0,1.0,37,0.00,,,0.00,weatherlink.com 1.10,2013-05-14 08:02:00,
2013-05-14 03:17:00,55.2,33.0,29.66,SSE,167,1.0,1.0,43,0.00,,,0.00,weatherlink.com 1.10,2013-05-14 08:17:00,
2013-05-14 03:32:00,58.7,35.0,29.65,SSE,166,0.0,2.0,41,0.00,,,0.00,weatherlink.com 1.10,2013-05-14 08:32:00,
2013-05-14 03:47:00,58.2,33.0,29.64,SE,131,0.0,1.0,39,0.00,,,0.00,weatherlink.com 1.10,2013-05-14 08:47:00,
2013-05-14 04:02:00,58.5,36.0,29.63,SSE,158,1.0,2.0,43,0.00,,,0.00,weatherlink.com 1.10,2013-05-14 09:02:00,
2013-05-14 04:17:00,61.3,36.0,29.64,South,184,2.0,5.0,39,0.00,,,0.00,weatherlink.com 1.10,2013-05-14 09:17:00,
2013-05-14 04:32:00,61.6,37.0,29.64,SSW,207,2.0,3.0,40,0.00,,,0.00,weatherlink.com 1.10,2013-05-14 09:32:00,
2013-05-14 04:47:00,61.6,37.0,29.61,SSW,211,1.0,2.0,41,0.00,,,0.00,weatherlink.com 1.10,2013-05-14 09:47:00,
2013-05-14 05:02:00,61.1,37.0,29.62,SSE,165,1.0,1.0,41,0.00,,,0.00,weatherlink.com 1.10,2013-05-14 10:02:00,
2013-05-14 05:17:00,60.0,37.0,29.61,SSE,153,0.0,1.0,43,0.00,,,0.00,weatherlink.com 1.10,2013-05-14 10:17:00,
2013-05-14 05:32:00,58.2,37.0,29.59,SE,136,1.0,3.0,45,0.00,,,0.00,weatherlink.com 1.10,2013-05-14 10:32:00,
2013-05-14 05:47:00,59.7,40.0,29.56,SE,129,1.0,4.0,48,0.00,,,0.00,weatherlink.com 1.10,2013-05-14 10:47:00,
2013-05-14 06:02:00,59.0,39.0,29.55,SE,135,1.0,3.0,48,0.00,,,0.00,weatherlink.com 1.10,2013-05-14 11:02:00,
2013-05-14 06:17:00,58.8,39.0,29.54,SE,125,1.0,3.0,48,0.00,,,0.00,weatherlink.com 1.10,2013-05-14 11:17:00,
2013-05-14 06:32:00,61.1,40.0,29.68,West,266,9.0,25.0,46,0.00,,,0.00,weatherlink.com 1.10,2013-05-14 11:32:00,
2013-05-14 06:47:00,65.1,48.0,29.72,WNW,284,3.0,19.0,54,0.07,,,0.07,weatherlink.com 1.10,2013-05-14 11:47:00,
2013-05-14 07:02:00,59.7,49.0,29.75,WNW,294,6.0,25.0,69,0.09,,,0.09,weatherlink.com 1.10,2013-05-14 12:02:00,
2013-05-14 07:17:00,59.0,53.0,29.72,WNW,301,8.0,21.0,79,0.09,,,0.09,weatherlink.com 1.10,2013-05-14 12:17:00,
2013-05-14 07:32:00,58.4,52.0,29.65,NE,53,7.0,17.0,80,0.10,,,0.10,weatherlink.com 1.10,2013-05-14 12:32:00,
2013-05-14 07:47:00,59.1,53.0,29.62,NE,50,6.0,13.0,80,0.03,,,0.10,weatherlink.com 1.10,2013-05-14 12:47:00,
2013-05-14 08:02:00,59.6,53.0,29.60,ENE,70,9.0,14.0,79,0.01,,,0.10,weatherlink.com 1.10,2013-05-14 13:02:00,
2013-05-14 08:17:00,59.5,51.0,29.60,ENE,77,7.0,13.0,73,0.01,,,0.10,weatherlink.com 1.10,2013-05-14 13:17:00,
2013-05-14 08:32:00,60.0,51.0,29.60,East,80,5.0,11.0,71,0.00,,,0.10,weatherlink.com 1.10,2013-05-14 13:32:00,
2013-05-14 08:47:00,62.0,52.0,29.59,East,84,7.0,8.0,69,0.00,,,0.10,weatherlink.com 1.10,2013-05-14 13:47:00,
2013-05-14 09:02:00,64.2,52.0,29.59,East,91,8.0,9.0,65,0.00,,,0.10,weatherlink.com 1.10,2013-05-14 14:02:00,
2013-05-14 09:17:00,66.0,52.0,29.58,East,98,8.0,10.0,61,0.00,,,0.10,weatherlink.com 1.10,2013-05-14 14:17:00,
2013-05-14 09:32:00,67.5,52.0,29.57,ESE,110,8.0,12.0,57,0.00,,,0.10,weatherlink.com 1.10,2013-05-14 14:32:00,
2013-05-14 09:47:00,69.0,51.0,29.57,ESE,108,8.0,12.0,53,0.00,,,0.10,weatherlink.com 1.10,2013-05-14 14:47:00,
2013-05-14 10:03:00,71.1,51.0,29.57,SE,127,3.0,10.0,49,0.00,,,0.10,weatherlink.com 1.10,2013-05-14 15:03:00,
2013-05-14 10:18:00,73.2,51.0,29.59,East,82,2.0,5.0,45,0.00,,,0.10,weatherlink.com 1.10,2013-05-14 15:18:00,
2013-05-14 10:33:00,75.5,49.0,29.58,SE,139,2.0,7.0,40,0.00,,,0.10,weatherlink.com 1.10,2013-05-14 15:33:00,
2013-05-14 10:48:00,77.4,50.0,29.57,ESE,103,2.0,5.0,39,0.00,,,0.10,weatherlink.com 1.10,2013-05-14 15:48:00,
2013-05-14 11:03:00,79.0,48.0,29.57,ESE,123,4.0,7.0,34,0.00,,,0.10,weatherlink.com 1.10,2013-05-14 16:03:00,
2013-05-14 11:18:00,81.0,48.0,29.57,SW,234,5.0,8.0,31,0.00,,,0.10,weatherlink.com 1.10,2013-05-14 16:18:00,
2013-05-14 11:33:00,81.5,49.0,29.57,South,186,2.0,8.0,32,0.00,,,0.10,weatherlink.com 1.10,2013-05-14 16:33:00,
2013-05-14 11:48:00,83.0,48.0,29.57,SW,235,3.0,7.0,29,0.00,,,0.10,weatherlink.com 1.10,2013-05-14 16:48:00,
2013-05-14 12:03:00,84.0,48.0,29.57,WNW,289,7.0,10.0,28,0.00,,,0.10,weatherlink.com 1.10,2013-05-14 17:03:00,
2013-05-14 12:18:00,83.4,48.0,29.58,WSW,241,6.0,13.0,29,0.00,,,0.10,weatherlink.com 1.10,2013-05-14 17:18:00,
2013-05-14 12:33:00,83.0,49.0,29.58,West,260,8.0,14.0,31,0.00,,,0.10,weatherlink.com 1.10,2013-05-14 17:33:00,
2013-05-14 12:48:00,81.7,51.0,29.59,West,269,8.0,17.0,34,0.00,,,0.10,weatherlink.com 1.10,2013-05-14 17:48:00,
2013-05-14 13:03:00,81.6,53.0,29.59,West,259,10.0,18.0,37,0.00,,,0.10,weatherlink.com 1.10,2013-05-14 18:03:00,
2013-05-14 13:18:00,81.7,51.0,29.59,West,259,9.0,18.0,35,0.00,,,0.10,weatherlink.com 1.10,2013-05-14 18:18:00,
2013-05-14 13:33:00,81.2,53.0,29.59,WNW,284,6.0,17.0,38,0.00,,,0.10,weatherlink.com 1.10,2013-05-14 18:33:00,
2013-05-14 13:48:00,81.3,55.0,29.58,West,266,11.0,16.0,41,0.00,,,0.10,weatherlink.com 1.10,2013-05-14 18:48:00,
2013-05-14 14:03:00,81.1,46.0,29.59,WNW,284,12.0,19.0,29,0.00,,,0.10,weatherlink.com 1.10,2013-05-14 19:03:00,
2013-05-14 14:18:00,81.3,39.0,29.60,WNW,297,12.0,18.0,22,0.00,,,0.10,weatherlink.com 1.10,2013-05-14 19:18:00,
2013-05-14 14:33:00,81.4,35.0,29.60,WNW,290,12.0,18.0,19,0.00,,,0.10,weatherlink.com 1.10,2013-05-14 19:33:00,
2013-05-14 14:48:00,80.7,35.0,29.61,WSW,252,11.0,24.0,19,0.00,,,0.10,weatherlink.com 1.10,2013-05-14 19:48:00,
2013-05-14 15:03:00,80.3,34.0,29.62,West,260,12.0,17.0,19,0.00,,,0.10,weatherlink.com 1.10,2013-05-14 20:03:00,
2013-05-14 15:18:00,79.6,34.0,29.62,WNW,297,15.0,21.0,19,0.00,,,0.10,weatherlink.com 1.10,2013-05-14 20:18:00,
2013-05-14 15:33:00,79.2,35.0,29.63,West,267,12.0,25.0,20,0.00,,,0.10,weatherlink.com 1.10,2013-05-14 20:33:00,
2013-05-14 15:48:00,79.5,36.0,29.63,WNW,291,12.0,23.0,21,0.00,,,0.10,weatherlink.com 1.10,2013-05-14 20:48:00,
2013-05-14 16:03:00,79.6,36.0,29.63,WNW,295,9.0,21.0,21,0.00,,,0.10,weatherlink.com 1.10,2013-05-14 21:03:00,
2013-05-14 16:18:00,79.3,37.0,29.62,WNW,288,10.0,22.0,22,0.00,,,0.10,weatherlink.com 1.10,2013-05-14 21:18:00,
2013-05-14 16:33:00,78.5,39.0,29.64,West,280,8.0,23.0,24,0.00,,,0.10,weatherlink.com 1.10,2013-05-14 21:33:00,
2013-05-14 16:48:00,77.8,40.0,29.64,NNW,330,14.0,27.0,26,0.00,,,0.10,weatherlink.com 1.10,2013-05-14 21:48:00,
2013-05-14 17:03:00,77.2,41.0,29.65,NW,308,21.0,25.0,27,0.00,,,0.10,weatherlink.com 1.10,2013-05-14 22:03:00,
2013-05-14 17:18:00,76.5,41.0,29.66,West,276,11.0,20.0,28,0.00,,,0.10,weatherlink.com 1.10,2013-05-14 22:18:00,
2013-05-14 17:33:00,76.0,43.0,29.66,West,273,12.0,28.0,31,0.00,,,0.10,weatherlink.com 1.10,2013-05-14 22:33:00,
2013-05-14 17:48:00,75.2,42.0,29.67,West,277,18.0,23.0,31,0.00,,,0.10,weatherlink.com 1.10,2013-05-14 22:48:00,
2013-05-14 18:03:00,73.8,42.0,29.68,NW,309,9.0,27.0,32,0.00,,,0.10,weatherlink.com 1.10,2013-05-14 23:03:00,
2013-05-14 18:18:00,73.9,42.0,29.68,NNW,335,7.0,19.0,32,0.00,,,0.10,weatherlink.com 1.10,2013-05-14 23:18:00,
2013-05-14 18:33:00,72.7,42.0,29.69,West,278,5.0,25.0,33,0.00,,,0.10,weatherlink.com 1.10,2013-05-14 23:33:00,
2013-05-14 18:48:00,71.5,42.0,29.70,WNW,285,7.0,25.0,35,0.00,,,0.10,weatherlink.com 1.10,2013-05-14 23:48:00,
2013-05-14 19:03:00,70.5,43.0,29.71,NW,304,6.0,22.0,37,0.00,,,0.10,weatherlink.com 1.10,2013-05-15 00:03:00,
2013-05-14 19:18:00,69.8,42.0,29.72,NW,304,11.0,25.0,37,0.00,,,0.10,weatherlink.com 1.10,2013-05-15 00:18:00,
2013-05-14 19:33:00,69.3,43.0,29.74,West,260,4.0,23.0,39,0.00,,,0.10,weatherlink.com 1.10,2013-05-15 00:33:00,
2013-05-14 19:48:00,68.9,42.0,29.75,NNW,342,11.0,23.0,38,0.00,,,0.10,weatherlink.com 1.10,2013-05-15 00:48:00,
2013-05-14 20:03:00,68.6,43.0,29.75,NW,321,12.0,23.0,39,0.00,,,0.10,weatherlink.com 1.10,2013-05-15 01:03:00,
2013-05-14 20:18:00,68.0,41.0,29.76,NNW,333,14.0,24.0,38,0.00,,,0.10,weatherlink.com 1.10,2013-05-15 01:18:00,
2013-05-14 20:33:00,67.1,41.0,29.77,North,8,9.0,21.0,39,0.00,,,0.10,weatherlink.com 1.10,2013-05-15 01:33:00,
2013-05-14 20:48:00,66.1,41.0,29.78,NW,320,9.0,14.0,40,0.00,,,0.10,weatherlink.com 1.10,2013-05-15 01:48:00,
2013-05-14 21:03:00,65.1,41.0,29.79,WNW,293,2.0,8.0,42,0.00,,,0.10,weatherlink.com 1.10,2013-05-15 02:03:00,
2013-05-14 21:18:00,63.7,41.0,29.80,WNW,287,3.0,7.0,43,0.00,,,0.10,weatherlink.com 1.10,2013-05-15 02:18:00,
2013-05-14 21:33:00,62.4,41.0,29.80,WNW,291,0.0,4.0,45,0.00,,,0.10,weatherlink.com 1.10,2013-05-15 02:33:00,
2013-05-14 21:48:00,61.3,41.0,29.81,NW,314,0.0,4.0,47,0.00,,,0.10,weatherlink.com 1.10,2013-05-15 02:48:00,
2013-05-14 22:04:00,60.0,40.0,29.82,WNW,288,0.0,3.0,48,0.00,,,0.10,weatherlink.com 1.10,2013-05-15 03:04:00,
2013-05-14 22:19:00,58.9,41.0,29.83,WNW,298,0.0,1.0,52,0.00,,,0.10,weatherlink.com 1.10,2013-05-15 03:19:00,
2013-05-14 22:34:00,59.0,41.0,29.83,West,264,0.0,2.0,52,0.00,,,0.10,weatherlink.com 1.10,2013-05-15 03:34:00,
2013-05-14 22:49:00,58.5,41.0,29.84,West,266,0.0,1.0,53,0.00,,,0.10,weatherlink.com 1.10,2013-05-15 03:49:00,
2013-05-14 23:04:00,57.8,41.0,29.84,WNW,284,0.0,1.0,54,0.00,,,0.10,weatherlink.com 1.10,2013-05-15 04:04:00,
2013-05-14 23:19:00,57.9,41.0,29.85,West,271,0.0,1.0,53,0.00,,,0.10,weatherlink.com 1.10,2013-05-15 04:19:00,
2013-05-14 23:34:00,57.3,41.0,29.85,West,271,0.0,1.0,54,0.00,,,0.10,weatherlink.com 1.10,2013-05-15 04:34:00,
2013-05-14 23:49:00,56.5,41.0,29.85,West,271,0.0,1.0,56,0.00,,,0.10,weatherlink.com 1.10,2013-05-15 04:49:00,